Time;durP1;ratioP1;P1;durP2;ratioP2;P2;SDS_P1;SDS_P2;PMS_P1;PMS_P2;Temp;Humidity;BMP_temperature;BMP_pressure;BME280_temperature;BME280_humidity;BME280_pressure;Samples;Min_cycle;Max_cycle;Signal;HPM_P1;HPM_P2
2022/12/15 04:00:36;;;;;;;4.00;3.13;;;12.90;47.20;;;;;;5954448;23;45844;-61
2022/12/15 04:03:02;;;;;;;3.95;3.05;;;12.90;47.20;;;;;;4964571;28;45882;-61
2022/12/15 04:05:29;;;;;;;3.90;2.78;;;12.80;47.10;;;;;;4972705;28;45254;-61
2022/12/15 04:07:56;;;;;;;3.72;3.00;;;12.80;47.10;;;;;;4967524;28;45240;-60
2022/12/15 04:10:22;;;;;;;4.07;3.05;;;12.80;47.10;;;;;;4978537;28;45399;-61
2022/12/15 04:12:48;;;;;;;4.45;2.97;;;12.80;47.10;;;;;;4965465;28;48381;-61
2022/12/15 04:15:13;;;;;;;3.80;2.83;;;12.80;47.20;;;;;;4973586;28;45491;-60
2022/12/15 04:17:40;;;;;;;4.35;2.90;;;12.80;47.20;;;;;;4995731;28;45252;-61
2022/12/15 04:20:09;;;;;;;5.03;3.30;;;12.80;47.20;;;;;;4999409;28;45147;-61
2022/12/15 04:22:36;;;;;;;4.82;3.17;;;12.80;47.20;;;;;;4983701;28;45239;-60
2022/12/15 05:33:27;;;;;;;4.60;3.00;;;12.50;47.40;;;;;;4997602;28;45216;-61
2022/12/15 05:35:56;;;;;;;3.72;2.78;;;12.50;47.40;;;;;;4991701;28;45746;-61
2022/12/15 05:38:21;;;;;;;3.83;2.55;;;12.50;47.40;;;;;;4992396;28;46005;-61
2022/12/15 05:40:47;;;;;;;4.70;3.25;;;12.50;47.40;;;;;;4989334;28;45391;-60
2022/12/15 05:43:12;;;;;;;5.10;3.35;;;12.50;47.50;;;;;;4974475;28;44743;-61
2022/12/15 05:45:38;;;;;;;3.20;2.65;;;12.50;47.50;;;;;;4989392;28;45630;-61
2022/12/15 05:48:04;;;;;;;4.50;2.95;;;12.50;47.40;;;;;;4990321;28;46263;-60
2022/12/15 05:50:29;;;;;;;3.53;2.72;;;12.40;47.30;;;;;;4980143;28;45434;-60
2022/12/15 05:52:57;;;;;;;4.18;3.15;;;12.50;47.50;;;;;;4975896;28;44904;-60
2022/12/15 05:55:22;;;;;;;3.95;3.10;;;12.40;47.40;;;;;;4993598;28;44717;-61
2022/12/15 05:57:52;;;;;;;4.72;3.15;;;12.40;47.40;;;;;;4993153;28;46940;-61
2022/12/15 06:00:17;;;;;;;4.78;3.22;;;12.40;47.40;;;;;;4976393;28;45455;-60
2022/12/15 06:02:43;;;;;;;4.18;3.08;;;12.40;47.50;;;;;;4995673;28;44956;-61
2022/12/15 06:05:08;;;;;;;4.20;3.38;;;12.40;47.50;;;;;;4991929;28;45187;-60
2022/12/15 06:07:35;;;;;;;5.05;3.40;;;12.40;47.60;;;;;;4979047;28;44924;-60
2022/12/15 06:10:00;;;;;;;4.53;3.03;;;12.40;47.50;;;;;;4993412;28;45442;-60
2022/12/15 06:12:27;;;;;;;4.60;3.40;;;12.40;47.50;;;;;;4995161;28;45446;-60
2022/12/15 06:14:52;;;;;;;3.80;2.63;;;12.30;47.50;;;;;;4997201;28;45354;-61
2022/12/15 06:17:18;;;;;;;3.92;2.78;;;12.40;47.50;;;;;;4995897;28;45686;-60
2022/12/15 06:19:43;;;;;;;4.25;2.83;;;12.30;47.50;;;;;;4995707;28;44994;-61
2022/12/15 06:22:09;;;;;;;4.10;2.95;;;12.30;47.50;;;;;;4995957;28;45462;-61
2022/12/15 06:24:34;;;;;;;4.28;3.17;;;12.30;47.50;;;;;;4997659;28;45584;-63
2022/12/15 06:27:00;;;;;;;3.75;2.83;;;12.30;47.50;;;;;;4997617;28;46064;-60
2022/12/15 06:29:26;;;;;;;4.00;2.80;;;12.30;47.50;;;;;;4977473;28;45401;-63
2022/12/15 06:31:52;;;;;;;3.38;2.85;;;12.30;47.50;;;;;;4959573;28;45557;-62
2022/12/15 06:34:17;;;;;;;3.55;3.08;;;12.30;47.50;;;;;;4976130;28;45258;-63
2022/12/15 06:36:43;;;;;;;4.70;3.20;;;12.30;47.50;;;;;;4984844;28;46302;-61
2022/12/15 06:39:11;;;;;;;4.32;3.03;;;12.30;47.50;;;;;;4957893;28;44976;-62
2022/12/15 06:41:36;;;;;;;5.60;3.33;;;12.30;47.50;;;;;;4988943;28;45487;-62
2022/12/15 06:44:02;;;;;;;4.38;3.08;;;12.20;47.50;;;;;;4993299;28;45251;-61
2022/12/15 06:46:28;;;;;;;3.85;3.20;;;12.30;47.60;;;;;;4972631;28;47432;-62
2022/12/15 06:48:54;;;;;;;3.95;3.10;;;12.20;47.60;;;;;;4974622;28;45322;-63
2022/12/15 06:51:20;;;;;;;4.47;3.42;;;12.20;47.60;;;;;;4987751;28;45660;-63
2022/12/15 06:53:49;;;;;;;3.97;3.10;;;12.20;47.60;;;;;;4985165;28;45378;-62
2022/12/15 06:56:17;;;;;;;4.80;3.47;;;12.20;47.60;;;;;;4981813;28;46134;-62
2022/12/15 06:58:43;;;;;;;4.40;3.10;;;12.20;47.60;;;;;;4962207;28;45568;-62
2022/12/15 07:01:10;;;;;;;4.05;2.90;;;12.20;47.60;;;;;;4966740;28;45598;-61
2022/12/15 07:03:35;;;;;;;4.15;3.08;;;12.20;47.60;;;;;;4964559;28;45676;-61
2022/12/15 07:06:03;;;;;;;5.00;3.33;;;12.20;47.60;;;;;;4992025;28;45837;-62
2022/12/15 07:08:29;;;;;;;3.75;2.95;;;12.20;47.60;;;;;;4994553;28;45243;-62
2022/12/15 07:10:54;;;;;;;3.95;2.90;;;12.20;47.60;;;;;;4988686;28;45203;-61
2022/12/15 07:13:20;;;;;;;4.00;3.05;;;12.20;47.70;;;;;;4993011;28;45620;-62
2022/12/15 07:15:47;;;;;;;3.67;2.97;;;12.20;47.70;;;;;;4948311;28;46190;-61
2022/12/15 07:18:13;;;;;;;4.07;3.03;;;12.20;47.70;;;;;;4989669;28;45208;-60
2022/12/15 07:20:38;;;;;;;4.13;2.90;;;12.10;47.60;;;;;;4990125;28;45629;-61
2022/12/15 07:23:06;;;;;;;4.65;3.08;;;12.10;47.60;;;;;;4960508;28;45295;-60
2022/12/15 07:25:34;;;;;;;4.38;3.30;;;12.10;47.60;;;;;;4995432;28;46294;-62
2022/12/15 07:28:00;;;;;;;3.75;2.75;;;12.10;47.60;;;;;;4981584;28;45519;-62
2022/12/15 07:30:25;;;;;;;5.20;3.53;;;12.10;47.60;;;;;;4974170;28;45188;-62
2022/12/15 07:32:51;;;;;;;4.32;3.00;;;12.10;47.60;;;;;;4973270;28;44818;-60
2022/12/15 07:35:17;;;;;;;4.88;3.08;;;12.10;47.60;;;;;;4974335;28;45547;-61
2022/12/15 07:37:42;;;;;;;3.63;2.70;;;12.10;47.60;;;;;;4988717;28;45747;-61
2022/12/15 07:40:08;;;;;;;3.45;2.67;;;12.10;47.60;;;;;;4992540;28;45248;-63
2022/12/15 07:42:34;;;;;;;4.03;2.90;;;12.10;47.60;;;;;;4976334;28;45385;-61
2022/12/15 07:44:59;;;;;;;4.40;3.08;;;12.00;47.60;;;;;;4974302;28;47224;-62
2022/12/15 07:47:26;;;;;;;4.00;2.80;;;12.00;47.70;;;;;;4990936;28;45319;-63
2022/12/15 07:49:53;;;;;;;5.32;3.28;;;12.00;47.70;;;;;;4990891;28;45459;-62
2022/12/15 07:52:19;;;;;;;4.63;3.17;;;12.00;47.70;;;;;;4993238;28;45127;-61
2022/12/15 07:54:44;;;;;;;4.40;3.15;;;12.00;47.70;;;;;;4955947;28;45982;-60
2022/12/15 07:57:10;;;;;;;3.67;2.90;;;12.00;47.70;;;;;;4956747;28;45104;-63
2022/12/15 07:59:35;;;;;;;3.95;2.88;;;12.00;47.70;;;;;;4989544;28;45037;-62
2022/12/15 08:02:03;;;;;;;4.38;3.00;;;12.00;47.70;;;;;;4990642;28;45743;-59
2022/12/15 08:04:31;;;;;;;4.63;3.17;;;12.00;47.80;;;;;;4991842;28;46032;-62
2022/12/15 08:06:57;;;;;;;4.75;3.53;;;12.00;47.70;;;;;;4972313;28;44949;-61
2022/12/15 08:09:22;;;;;;;4.60;3.28;;;12.00;47.70;;;;;;4990114;28;45167;-62
2022/12/15 08:11:49;;;;;;;4.38;3.00;;;11.90;47.70;;;;;;4991351;28;45744;-62
2022/12/15 08:14:15;;;;;;;4.40;3.00;;;12.00;47.80;;;;;;4986678;28;45377;-62
2022/12/15 08:16:40;;;;;;;4.40;3.05;;;11.90;47.80;;;;;;4991929;28;45592;-62
2022/12/15 08:19:07;;;;;;;3.75;2.67;;;11.90;47.70;;;;;;4992790;28;45116;-61
2022/12/15 08:21:33;;;;;;;4.93;3.45;;;11.90;47.80;;;;;;4986700;28;45511;-63
2022/12/15 08:23:59;;;;;;;4.22;3.08;;;12.00;47.80;;;;;;4994445;28;46299;-61
2022/12/15 08:26:25;;;;;;;4.07;2.83;;;11.90;47.80;;;;;;4992045;28;44648;-63
2022/12/15 08:28:51;;;;;;;5.63;2.92;;;11.90;47.70;;;;;;4975323;28;45486;-62
2022/12/15 08:31:21;;;;;;;4.65;3.08;;;11.90;47.80;;;;;;4997096;28;45547;-62
2022/12/15 08:33:46;;;;;;;3.42;2.72;;;11.90;47.90;;;;;;4968314;28;47375;-63
2022/12/15 08:36:13;;;;;;;4.68;3.22;;;11.90;47.80;;;;;;4976669;28;44965;-62
2022/12/15 08:38:38;;;;;;;4.45;3.35;;;11.90;47.80;;;;;;4993822;28;44905;-62
2022/12/15 08:41:08;;;;;;;4.50;3.10;;;11.90;47.80;;;;;;4989309;28;45563;-62
2022/12/15 08:43:34;;;;;;;4.65;3.20;;;11.90;47.80;;;;;;4976184;28;45458;-60
2022/12/15 08:46:00;;;;;;;6.00;2.90;;;11.80;47.80;;;;;;4993042;28;45401;-60
2022/12/15 08:48:25;;;;;;;5.18;3.58;;;11.90;47.90;;;;;;4993791;28;45449;-60
2022/12/15 08:50:52;;;;;;;4.10;3.10;;;11.90;47.90;;;;;;4989035;28;45282;-60
2022/12/15 08:53:17;;;;;;;4.35;3.08;;;11.90;47.90;;;;;;4967847;28;45304;-60
2022/12/15 08:55:43;;;;;;;4.78;3.10;;;11.80;47.80;;;;;;4991270;28;45171;-61
2022/12/15 08:58:09;;;;;;;5.13;3.40;;;11.90;47.80;;;;;;4993079;28;44868;-60
2022/12/15 09:00:34;;;;;;;3.83;3.22;;;11.80;47.80;;;;;;4975052;28;45597;-61
2022/12/15 09:03:00;;;;;;;5.05;2.97;;;11.80;47.80;;;;;;4974178;28;45605;-62
2022/12/15 09:05:25;;;;;;;4.43;3.15;;;11.80;47.90;;;;;;4984851;28;45028;-64
2022/12/15 09:07:55;;;;;;;3.63;3.03;;;11.80;47.90;;;;;;4990619;28;45427;-62
2022/12/15 09:10:21;;;;;;;5.25;3.30;;;11.80;47.90;;;;;;4980030;28;45280;-62
2022/12/15 09:12:46;;;;;;;4.72;2.92;;;11.80;47.90;;;;;;4990263;28;46151;-62
2022/12/15 09:15:12;;;;;;;4.47;3.45;;;11.80;47.90;;;;;;4955069;28;45647;-63
2022/12/15 09:17:37;;;;;;;4.55;3.35;;;11.70;47.90;;;;;;4986528;28;45236;-64
2022/12/15 09:20:04;;;;;;;4.35;3.17;;;11.70;47.90;;;;;;4988864;28;45222;-62
2022/12/15 09:22:30;;;;;;;4.20;3.20;;;11.70;48.00;;;;;;4986933;28;45325;-62
2022/12/15 09:24:55;;;;;;;5.75;3.63;;;11.70;47.90;;;;;;4986994;28;45486;-59
2022/12/15 09:27:21;;;;;;;4.78;2.88;;;11.70;48.00;;;;;;4944648;28;45630;-59
2022/12/15 09:29:46;;;;;;;5.05;3.47;;;11.70;47.90;;;;;;4993392;28;45283;-60
2022/12/15 09:32:12;;;;;;;4.38;3.03;;;11.70;48.00;;;;;;4969235;28;45938;-62
2022/12/15 09:34:38;;;;;;;4.93;3.13;;;11.70;48.00;;;;;;4988866;28;45346;-60
2022/12/15 09:37:04;;;;;;;5.03;3.20;;;11.70;47.90;;;;;;4970724;28;45060;-62
2022/12/15 09:39:31;;;;;;;5.72;3.80;;;11.70;48.00;;;;;;4992086;28;45146;-61
2022/12/15 09:41:58;;;;;;;5.13;3.40;;;11.70;47.90;;;;;;4972269;28;46180;-59
2022/12/15 09:44:24;;;;;;;4.38;3.25;;;11.70;48.00;;;;;;4976584;28;45501;-59
2022/12/15 09:47:27;;;;;;;5.05;3.63;;;11.70;47.90;;;;;;4943785;28;45267;-61
2022/12/15 09:50:02;;;;;;;4.68;3.00;;;11.70;48.00;;;;;;4950558;28;45374;-63
2022/12/15 09:52:34;;;;;;;4.90;3.40;;;11.70;47.90;;;;;;4968659;28;45021;-63
2022/12/15 09:55:02;;;;;;;5.68;3.55;;;11.70;47.90;;;;;;4990720;28;45027;-61
2022/12/15 09:57:44;;;;;;;6.05;3.47;;;11.70;47.90;;;;;;4987434;28;45272;-60
2022/12/15 10:00:20;;;;;;;5.00;3.72;;;11.60;47.90;;;;;;4977833;28;45365;-60
2022/12/15 10:03:16;;;;;;;4.68;3.13;;;11.60;48.10;;;;;;4972439;28;46024;-60
2022/12/15 10:06:10;;;;;;;5.40;3.67;;;11.60;48.00;;;;;;4970469;28;45129;-61
2022/12/15 10:08:38;;;;;;;;;;;11.60;48.00;;;;;;4972377;28;45104;-61
2022/12/15 10:11:38;;;;;;;4.15;2.72;;;11.60;48.10;;;;;;4984702;28;45132;-60
2022/12/15 10:14:26;;;;;;;4.55;3.10;;;11.60;48.10;;;;;;4985640;28;45241;-61
2022/12/15 10:16:53;;;;;;;4.68;3.03;;;11.60;48.00;;;;;;4970998;28;44930;-60
2022/12/15 10:19:33;;;;;;;5.72;3.67;;;11.60;48.00;;;;;;4972828;28;45238;-60
2022/12/15 10:21:58;;;;;;;4.70;3.28;;;11.60;47.90;;;;;;4975813;28;44951;-62
2022/12/15 10:24:24;;;;;;;6.20;3.45;;;11.60;47.90;;;;;;4990538;28;46235;-62
2022/12/15 10:27:16;;;;;;;4.68;3.25;;;11.60;48.00;;;;;;4974069;28;45408;-59
2022/12/15 10:30:01;;;;;;;6.03;3.53;;;11.60;48.00;;;;;;4964422;28;44928;-62
2022/12/15 10:33:09;;;;;;;4.90;3.17;;;11.60;48.00;;;;;;4957387;28;45586;-61
2022/12/15 10:35:35;;;;;;;4.50;3.42;;;11.60;47.90;;;;;;4934532;28;46967;-61
2022/12/15 10:38:03;;;;;;;4.00;3.00;;;11.60;48.00;;;;;;4933055;28;45010;-61
2022/12/15 10:40:42;;;;;;;6.88;3.58;;;11.60;47.90;;;;;;4958835;28;45488;-62
2022/12/15 10:43:33;;;;;;;5.32;3.70;;;11.60;48.00;;;;;;4973830;28;45257;-62
2022/12/15 10:46:12;;;;;;;4.90;3.33;;;11.60;47.90;;;;;;4965407;28;47219;-60
2022/12/15 10:48:38;;;;;;;4.80;3.47;;;11.60;48.00;;;;;;4991339;28;45351;-61
2022/12/15 10:51:12;;;;;;;4.63;3.08;;;11.50;47.90;;;;;;4987405;28;45576;-61
2022/12/15 10:53:48;;;;;;;4.65;3.47;;;11.60;47.90;;;;;;4973497;28;44622;-61
2022/12/15 10:56:20;;;;;;;4.78;3.03;;;11.50;47.90;;;;;;4988998;28;45415;-61
2022/12/15 10:58:51;;;;;;;5.03;3.33;;;11.50;47.90;;;;;;4988362;28;45485;-62
2022/12/15 11:01:19;;;;;;;5.07;3.75;;;11.50;47.90;;;;;;4988155;28;45367;-61
2022/12/15 11:03:45;;;;;;;4.18;3.30;;;11.50;47.90;;;;;;4988438;28;46067;-60
2022/12/15 11:06:16;;;;;;;4.82;3.15;;;11.50;47.90;;;;;;4989534;28;45258;-62
2022/12/15 11:08:42;;;;;;;3.92;3.28;;;11.50;48.00;;;;;;4972612;28;45557;-61
2022/12/15 11:14:16;;;;;;;5.47;3.38;;;11.50;48.00;;;;;;4965479;28;45661;-62
2022/12/15 11:16:55;;;;;;;4.68;3.45;;;11.50;48.00;;;;;;4972272;28;47078;-62
2022/12/15 11:19:33;;;;;;;5.45;3.63;;;11.50;48.00;;;;;;4989387;28;44995;-61
2022/12/15 11:22:20;;;;;;;8.48;3.53;;;11.50;48.00;;;;;;4974636;28;44677;-61
2022/12/15 11:25:24;;;;;;;4.35;3.42;;;11.50;48.00;;;;;;4988932;28;45408;-62
2022/12/15 11:27:50;;;;;;;4.63;3.30;;;11.40;48.00;;;;;;4986351;28;45028;-60
2022/12/15 11:30:21;;;;;;;5.13;3.38;;;11.40;48.00;;;;;;4979653;28;45580;-60
2022/12/15 11:32:52;;;;;;;4.30;3.10;;;11.40;48.00;;;;;;4989868;28;45123;-61
2022/12/15 11:35:21;;;;;;;4.65;3.33;;;11.50;48.00;;;;;;4953504;28;45212;-62
2022/12/15 11:38:23;;;;;;;5.28;3.45;;;11.40;48.00;;;;;;4941738;28;45172;-60
2022/12/15 11:40:48;;;;;;;5.32;3.30;;;11.40;48.00;;;;;;4987672;28;44935;-62
2022/12/15 11:43:35;;;;;;;6.07;3.55;;;11.40;48.00;;;;;;4940349;28;45197;-61
2022/12/15 11:46:20;;;;;;;5.28;3.58;;;11.40;48.00;;;;;;4966001;28;45541;-59
2022/12/15 11:48:51;;;;;;;5.43;3.58;;;11.40;47.90;;;;;;4985465;28;45968;-61
2022/12/15 11:51:24;;;;;;;4.55;3.17;;;11.40;47.90;;;;;;4976988;28;45817;-62
2022/12/15 11:54:10;;;;;;;;;;;11.40;48.00;;;;;;4972993;28;45108;-62
2022/12/15 11:56:41;;;;;;;3.88;2.97;;;11.40;48.10;;;;;;4985295;28;45033;-60
2022/12/15 11:59:33;;;;;;;5.78;3.67;;;11.40;48.00;;;;;;4975627;28;45949;-60
2022/12/15 12:02:27;;;;;;;4.63;3.22;;;11.40;48.00;;;;;;4973072;28;45163;-59
2022/12/15 12:05:15;;;;;;;5.15;3.53;;;11.40;48.10;;;;;;4978215;28;44979;-62
2022/12/15 12:07:46;;;;;;;4.95;3.20;;;11.40;48.10;;;;;;4998145;28;45593;-61
2022/12/15 12:10:52;;;;;;;5.18;3.42;;;11.40;48.10;;;;;;4976757;28;45506;-60
2022/12/15 12:13:47;;;;;;;5.43;3.53;;;11.40;48.20;;;;;;4991751;28;45424;-62
2022/12/15 12:16:48;;;;;;;4.50;3.30;;;11.40;48.10;;;;;;4965864;28;45292;-61
2022/12/15 12:19:44;;;;;;;5.18;3.38;;;11.40;48.10;;;;;;4973562;28;45593;-62
2022/12/15 12:22:34;;;;;;;6.32;3.50;;;11.40;48.10;;;;;;4971573;28;45866;-61
2022/12/15 12:25:02;;;;;;;4.82;3.40;;;11.30;48.10;;;;;;4991762;28;44886;-61
2022/12/15 12:27:30;;;;;;;4.68;3.63;;;11.30;48.00;;;;;;4975318;28;45330;-62
2022/12/15 12:30:16;;;;;;;4.35;3.08;;;11.30;48.00;;;;;;4976280;28;45415;-61
2022/12/15 12:32:50;;;;;;;5.10;3.45;;;11.30;48.10;;;;;;4974413;28;46220;-62
2022/12/15 12:35:39;;;;;;;4.65;3.13;;;11.40;48.10;;;;;;4975801;28;45514;-62
2022/12/15 12:38:06;;;;;;;4.53;3.28;;;11.30;48.00;;;;;;4977234;28;45243;-62
2022/12/15 12:40:52;;;;;;;5.13;3.38;;;11.30;48.00;;;;;;4977714;28;45576;-61
2022/12/15 12:43:31;;;;;;;4.88;3.60;;;11.30;48.10;;;;;;4973942;28;45127;-61
2022/12/15 12:46:06;;;;;;;4.93;3.58;;;11.30;48.10;;;;;;4972443;28;45522;-62
2022/12/15 12:48:40;;;;;;;6.25;3.95;;;11.30;48.10;;;;;;4968524;28;45077;-60
2022/12/15 12:51:29;;;;;;;4.85;3.40;;;11.30;48.10;;;;;;4963302;28;45507;-61
2022/12/15 12:53:56;;;;;;;4.45;2.95;;;11.30;48.10;;;;;;4941764;28;45806;-61
2022/12/15 12:56:38;;;;;;;6.15;4.40;;;11.30;48.00;;;;;;4968947;28;46248;-61
2022/12/15 12:59:23;;;;;;;5.78;3.47;;;11.30;48.10;;;;;;4994778;28;45362;-61
2022/12/15 13:01:48;;;;;;;5.28;3.63;;;11.30;48.00;;;;;;4973460;28;45766;-62
2022/12/15 13:04:29;;;;;;;5.20;3.42;;;11.30;48.10;;;;;;4988508;28;46191;-62
2022/12/15 13:06:59;;;;;;;5.72;3.75;;;11.30;48.20;;;;;;4985741;28;45738;-61
2022/12/15 13:09:41;;;;;;;5.22;3.35;;;11.30;48.10;;;;;;4990276;28;45545;-61
2022/12/15 13:12:36;;;;;;;4.80;3.47;;;11.30;48.10;;;;;;4982327;28;45644;-63
2022/12/15 13:15:04;;;;;;;4.88;3.35;;;11.20;48.10;;;;;;4990537;28;46180;-61
2022/12/15 13:17:31;;;;;;;4.65;3.63;;;11.20;48.10;;;;;;4973554;28;45484;-59
2022/12/15 13:20:00;;;;;;;6.65;3.45;;;11.20;48.00;;;;;;4939120;28;45507;-63
2022/12/15 13:22:25;;;;;;;5.00;3.30;;;11.30;48.10;;;;;;4987983;28;45619;-63
2022/12/15 13:24:51;;;;;;;4.95;3.75;;;11.20;48.10;;;;;;4988355;28;46138;-62
2022/12/15 13:27:18;;;;;;;6.45;4.05;;;11.20;48.00;;;;;;4966214;28;46427;-62
2022/12/15 13:30:13;;;;;;;5.38;3.67;;;11.20;48.00;;;;;;4972967;28;45439;-61
2022/12/15 13:32:52;;;;;;;6.57;3.70;;;11.20;48.10;;;;;;4986795;28;45374;-61
2022/12/15 13:35:21;;;;;;;4.70;3.47;;;11.20;48.10;;;;;;4986871;28;46072;-62
2022/12/15 13:37:47;;;;;;;4.63;3.42;;;11.20;48.10;;;;;;4973276;28;46138;-62
2022/12/15 13:40:51;;;;;;;4.78;3.22;;;11.20;48.10;;;;;;4987970;28;45347;-62
2022/12/15 13:43:25;;;;;;;5.20;3.60;;;11.20;48.20;;;;;;4967147;28;44961;-63
2022/12/15 13:45:59;;;;;;;5.07;3.25;;;11.20;48.20;;;;;;4972825;28;47001;-61
2022/12/15 13:48:34;;;;;;;5.68;3.72;;;11.20;48.10;;;;;;4964450;28;45500;-60
2022/12/15 13:51:19;;;;;;;5.60;3.40;;;11.20;48.10;;;;;;4959344;28;45305;-61
2022/12/15 13:54:15;;;;;;;5.00;3.13;;;11.20;48.10;;;;;;4974182;28;44896;-61
2022/12/15 13:56:46;;;;;;;4.65;3.20;;;11.30;48.00;;;;;;4969069;28;45320;-61
2022/12/15 13:59:27;;;;;;;4.22;2.92;;;11.50;47.90;;;;;;4967529;28;45335;-61
2022/12/15 14:01:52;;;;;;;5.78;3.70;;;11.60;47.60;;;;;;4971789;28;45606;-60
2022/12/15 14:04:18;;;;;;;4.55;3.15;;;11.70;47.40;;;;;;4981651;28;45072;-61
2022/12/15 14:07:00;;;;;;;4.93;3.13;;;11.80;47.40;;;;;;4968643;28;45753;-62
2022/12/15 14:09:37;;;;;;;3.92;2.70;;;11.80;47.50;;;;;;4961621;28;45614;-61
2022/12/15 14:12:04;;;;;;;4.47;3.20;;;11.80;47.50;;;;;;4974419;28;45650;-61
2022/12/15 14:14:35;;;;;;;5.57;3.60;;;11.90;47.50;;;;;;4967928;28;45712;-63
2022/12/15 14:17:02;;;;;;;4.45;3.17;;;12.00;47.30;;;;;;4967114;28;45717;-61
2022/12/15 14:19:49;;;;;;;4.63;3.45;;;12.20;47.10;;;;;;4955931;28;45238;-61
2022/12/15 14:22:24;;;;;;;5.00;3.33;;;12.40;46.90;;;;;;4992359;28;44996;-63
2022/12/15 14:24:50;;;;;;;4.88;3.20;;;12.50;46.70;;;;;;4991901;28;45268;-62
2022/12/15 14:27:23;;;;;;;4.05;3.05;;;12.60;46.50;;;;;;4975956;28;45962;-62
2022/12/15 14:29:49;;;;;;;5.65;3.47;;;12.80;46.30;;;;;;4988847;28;45545;-60
2022/12/15 14:32:14;;;;;;;4.45;3.00;;;13.00;46.30;;;;;;4975284;28;44933;-60
2022/12/15 14:34:40;;;;;;;4.35;3.13;;;13.10;46.10;;;;;;4989220;28;44629;-61
2022/12/15 14:37:07;;;;;;;4.25;2.92;;;13.20;45.90;;;;;;4959632;28;45833;-61
2022/12/15 14:39:41;;;;;;;4.47;3.30;;;13.30;45.80;;;;;;4973092;28;45498;-61
2022/12/15 14:42:06;;;;;;;4.22;2.97;;;13.40;45.70;;;;;;4974911;28;45706;-61
2022/12/15 14:44:36;;;;;;;4.60;3.42;;;13.40;45.70;;;;;;4968728;28;45455;-60
2022/12/15 14:47:04;;;;;;;4.53;2.90;;;13.30;45.80;;;;;;4975994;28;46957;-62
2022/12/15 14:49:40;;;;;;;3.67;2.72;;;13.30;45.90;;;;;;4967388;28;44922;-60
2022/12/15 14:52:06;;;;;;;5.22;3.47;;;13.30;45.90;;;;;;4990316;28;45117;-61
2022/12/15 14:54:37;;;;;;;5.22;3.78;;;13.20;46.00;;;;;;4969866;28;45058;-61
2022/12/15 14:57:13;;;;;;;4.35;3.38;;;13.20;46.20;;;;;;4985792;28;46683;-62
2022/12/15 14:59:43;;;;;;;4.15;3.20;;;13.10;46.30;;;;;;4986597;28;44938;-59
2022/12/15 15:02:13;;;;;;;4.45;3.28;;;13.10;46.40;;;;;;4985104;28;45646;-61
2022/12/15 15:04:40;;;;;;;4.90;3.47;;;13.00;46.30;;;;;;4986695;28;44670;-62
2022/12/15 15:07:15;;;;;;;5.20;3.33;;;13.00;46.40;;;;;;4972020;28;45677;-62
2022/12/15 15:09:41;;;;;;;5.50;3.72;;;13.00;46.40;;;;;;4978121;28;45421;-62
2022/12/15 15:12:17;;;;;;;4.18;3.40;;;12.90;46.40;;;;;;4974033;28;45278;-62
2022/12/15 15:14:43;;;;;;;4.72;3.60;;;12.90;46.50;;;;;;4971389;28;45611;-62
2022/12/15 15:17:12;;;;;;;5.22;3.33;;;12.90;46.60;;;;;;4990691;28;45769;-61
2022/12/15 15:19:38;;;;;;;5.38;3.88;;;12.90;46.60;;;;;;4987403;28;45190;-61
2022/12/15 15:22:04;;;;;;;4.35;3.40;;;12.80;46.60;;;;;;4970923;28;45350;-62
2022/12/15 15:24:33;;;;;;;5.65;3.97;;;12.80;46.70;;;;;;4985830;28;44593;-62
2022/12/15 15:27:22;;;;;;;4.32;3.25;;;12.70;46.70;;;;;;4975204;28;45360;-62
2022/12/15 15:29:48;;;;;;;4.90;3.33;;;12.70;46.70;;;;;;4975431;28;45313;-62
2022/12/15 15:32:17;;;;;;;4.80;3.47;;;12.70;46.80;;;;;;4983523;28;44976;-61
2022/12/15 15:34:43;;;;;;;4.70;3.58;;;12.60;46.80;;;;;;4992447;28;45382;-61
2022/12/15 15:37:39;;;;;;;4.78;3.72;;;12.60;46.80;;;;;;4975928;28;45581;-60
2022/12/15 15:40:08;;;;;;;5.43;3.83;;;12.60;46.90;;;;;;4947709;28;45350;-60
2022/12/15 15:42:33;;;;;;;5.05;3.67;;;12.60;46.90;;;;;;4989926;28;45479;-60
2022/12/15 15:44:59;;;;;;;4.85;3.72;;;12.60;47.00;;;;;;4987576;28;45651;-61
2022/12/15 15:47:25;;;;;;;5.35;3.63;;;12.50;47.00;;;;;;4990006;28;45896;-62
2022/12/15 15:49:51;;;;;;;6.05;3.95;;;12.50;47.00;;;;;;4994843;28;45457;-61
2022/12/15 15:52:17;;;;;;;5.47;3.50;;;12.50;47.00;;;;;;4972831;28;45552;-60
2022/12/15 15:54:42;;;;;;;5.45;3.67;;;12.50;47.10;;;;;;4993326;28;45500;-61
2022/12/15 15:57:14;;;;;;;5.90;3.97;;;12.40;47.00;;;;;;4956384;28;46226;-62
2022/12/15 15:59:41;;;;;;;4.97;3.88;;;12.40;47.10;;;;;;4988398;28;45512;-62
2022/12/15 16:02:07;;;;;;;5.35;3.70;;;12.40;47.00;;;;;;4984461;28;45646;-63
2022/12/15 16:04:35;;;;;;;5.53;4.18;;;12.40;47.10;;;;;;4975245;28;44787;-60
2022/12/15 16:07:02;;;;;;;6.00;3.70;;;12.40;47.10;;;;;;4989771;28;45191;-62
2022/12/15 16:09:27;;;;;;;5.80;3.90;;;12.30;47.10;;;;;;4972822;28;45519;-62
2022/12/15 16:11:53;;;;;;;5.03;3.50;;;12.30;47.20;;;;;;4989098;28;46865;-62
2022/12/15 16:14:19;;;;;;;4.70;3.65;;;12.30;47.20;;;;;;4987501;28;45205;-63
2022/12/15 16:16:44;;;;;;;4.57;3.17;;;12.20;47.20;;;;;;4961285;28;46361;-60
2022/12/15 16:19:11;;;;;;;5.93;4.15;;;12.20;47.20;;;;;;4954426;28;45101;-62
2022/12/15 16:21:37;;;;;;;5.25;3.90;;;12.20;47.20;;;;;;4987524;28;45481;-62
2022/12/15 16:24:07;;;;;;;6.18;4.05;;;12.20;47.30;;;;;;4973886;28;45470;-61
2022/12/15 16:26:32;;;;;;;6.32;3.70;;;12.20;47.30;;;;;;4975209;28;46090;-62
2022/12/15 16:28:58;;;;;;;5.22;3.65;;;12.20;47.40;;;;;;4972042;28;45019;-62
2022/12/15 16:31:31;;;;;;;4.60;3.58;;;12.10;47.90;;;;;;4990656;28;45722;-62
2022/12/15 16:33:57;;;;;;;4.40;3.63;;;12.10;47.40;;;;;;4990965;28;45036;-61
2022/12/15 16:36:23;;;;;;;6.03;4.10;;;12.10;47.50;;;;;;4987630;28;46841;-61
2022/12/15 16:38:48;;;;;;;6.00;4.18;;;12.10;47.50;;;;;;4967856;28;44930;-62
2022/12/15 16:41:15;;;;;;;5.63;4.05;;;12.10;47.50;;;;;;4967837;28;45160;-62
2022/12/15 16:43:40;;;;;;;5.38;3.83;;;12.00;47.40;;;;;;4942977;28;45158;-62
2022/12/15 16:46:06;;;;;;;5.35;3.85;;;12.00;47.40;;;;;;4994568;28;46030;-62
2022/12/15 16:48:31;;;;;;;6.15;4.18;;;12.00;47.50;;;;;;4986853;28;45884;-61
2022/12/15 16:50:58;;;;;;;6.40;4.25;;;12.00;47.60;;;;;;4989000;28;45165;-61
2022/12/15 16:53:30;;;;;;;4.95;3.28;;;12.00;47.60;;;;;;4959423;28;45380;-62
2022/12/15 16:55:57;;;;;;;5.72;4.35;;;11.90;47.50;;;;;;4988415;28;47201;-62
2022/12/15 16:58:24;;;;;;;5.22;3.70;;;11.90;47.50;;;;;;4972576;28;45213;-62
2022/12/15 17:00:49;;;;;;;5.93;4.00;;;11.90;47.50;;;;;;4969228;28;45424;-62
2022/12/15 17:03:17;;;;;;;4.70;3.65;;;11.90;47.50;;;;;;4990432;28;45251;-60
2022/12/15 17:05:46;;;;;;;4.55;3.78;;;11.90;47.60;;;;;;4988314;28;45160;-61
2022/12/15 17:08:18;;;;;;;5.72;4.03;;;11.90;47.60;;;;;;4960509;28;45510;-61
2022/12/15 17:10:44;;;;;;;6.22;3.70;;;11.90;47.60;;;;;;4973104;28;45459;-62
2022/12/15 17:13:26;;;;;;;5.68;3.88;;;11.80;47.60;;;;;;4989707;28;45569;-61
2022/12/15 17:15:51;;;;;;;4.97;3.63;;;11.80;47.60;;;;;;4960635;28;46133;-61
2022/12/15 17:18:17;;;;;;;5.20;3.53;;;11.80;47.70;;;;;;4986234;28;45884;-62
2022/12/15 17:20:42;;;;;;;5.55;3.78;;;11.80;47.70;;;;;;4987214;28;45059;-62
2022/12/15 17:23:15;;;;;;;5.70;4.10;;;11.80;47.80;;;;;;4993359;28;45450;-62
2022/12/15 17:25:44;;;;;;;6.32;3.88;;;11.80;47.80;;;;;;4937923;28;47215;-61
2022/12/15 17:28:24;;;;;;;5.45;4.03;;;11.70;47.70;;;;;;4990032;28;45473;-62
2022/12/15 17:30:52;;;;;;;5.03;3.45;;;11.70;47.80;;;;;;4969908;28;45969;-61
2022/12/15 17:33:22;;;;;;;4.78;3.53;;;11.70;47.80;;;;;;4994112;28;45186;-60
2022/12/15 17:35:50;;;;;;;5.88;4.13;;;11.70;47.80;;;;;;4990944;28;45563;-61
2022/12/15 17:38:19;;;;;;;6.32;4.25;;;11.70;47.80;;;;;;4992746;28;44902;-61
2022/12/15 17:40:45;;;;;;;6.75;4.70;;;11.70;47.80;;;;;;4970536;28;46469;-61
2022/12/15 17:43:13;;;;;;;6.05;3.72;;;11.60;47.80;;;;;;4990018;28;45644;-61
2022/12/15 17:45:38;;;;;;;6.00;3.97;;;11.60;47.80;;;;;;4952422;28;45897;-62
2022/12/15 17:48:04;;;;;;;5.75;3.78;;;11.60;47.80;;;;;;4980895;28;45571;-61
2022/12/15 17:50:31;;;;;;;5.68;3.70;;;11.60;47.80;;;;;;4971583;28;45578;-62
2022/12/15 17:52:57;;;;;;;6.15;4.15;;;11.60;47.90;;;;;;4953675;28;45193;-63
2022/12/15 17:55:24;;;;;;;7.22;4.65;;;11.60;47.90;;;;;;4970947;28;46205;-61
2022/12/15 17:57:50;;;;;;;6.43;3.97;;;11.50;47.90;;;;;;4952830;28;45625;-61
2022/12/15 18:00:18;;;;;;;6.28;3.97;;;11.50;47.90;;;;;;4988041;28;45400;-62
2022/12/15 18:02:43;;;;;;;5.07;4.00;;;11.50;47.90;;;;;;4984732;28;45582;-61
2022/12/15 18:05:09;;;;;;;6.28;4.38;;;11.50;47.90;;;;;;4986724;28;45436;-62
2022/12/15 18:07:35;;;;;;;5.10;4.13;;;11.50;47.90;;;;;;4968925;28;45547;-62
2022/12/15 18:10:00;;;;;;;6.00;3.90;;;11.50;48.00;;;;;;4951725;28;45174;-61
2022/12/15 18:12:26;;;;;;;5.22;3.72;;;11.50;48.00;;;;;;4965942;28;46076;-62
2022/12/15 18:14:52;;;;;;;5.57;4.30;;;11.40;48.00;;;;;;4967151;28;46828;-62
2022/12/15 18:17:17;;;;;;;6.05;4.20;;;11.40;48.00;;;;;;4967297;28;46081;-62